Time;durP1;ratioP1;P1;durP2;ratioP2;P2;SDS_P1;SDS_P2;PMS_P1;PMS_P2;Temp;Humidity;BMP_temperature;BMP_pressure;BME280_temperature;BME280_humidity;BME280_pressure;Samples;Min_cycle;Max_cycle;Signal;HPM_P1;HPM_P2
2022/10/31 00:01:52;;;;;;;3.60;2.17;;;12.00;99.90;;;;;;5072671;28;20480;-48
2022/10/31 00:04:19;;;;;;;3.53;1.90;;;12.20;99.90;;;;;;5072511;28;20457;-49
2022/10/31 00:06:46;;;;;;;5.03;1.93;;;12.00;99.90;;;;;;5072629;28;20447;-48
2022/10/31 00:09:13;;;;;;;7.20;1.90;;;12.20;99.90;;;;;;5072919;28;20452;-48
2022/10/31 00:11:41;;;;;;;5.10;1.90;;;12.20;99.90;;;;;;5072743;28;20534;-48
2022/10/31 00:14:08;;;;;;;5.43;2.13;;;12.30;99.90;;;;;;5072414;28;20567;-48
2022/10/31 00:16:35;;;;;;;5.03;1.80;;;12.20;99.90;;;;;;5072609;28;20525;-49
2022/10/31 00:19:03;;;;;;;3.33;2.33;;;12.00;99.90;;;;;;5072297;28;20449;-47
2022/10/31 00:21:31;;;;;;;5.37;1.67;;;12.10;99.90;;;;;;5072523;28;20529;-48
2022/10/31 00:23:58;;;;;;;5.17;1.90;;;12.00;99.90;;;;;;5072083;28;20828;-47
2022/10/31 00:26:25;;;;;;;6.00;2.47;;;12.10;99.90;;;;;;5072349;28;20490;-50
2022/10/31 00:28:53;;;;;;;6.70;2.10;;;12.10;99.90;;;;;;5072465;28;20820;-48
2022/10/31 00:31:20;;;;;;;4.53;1.80;;;12.00;99.90;;;;;;5072543;28;20541;-48
2022/10/31 00:33:47;;;;;;;4.00;2.03;;;11.90;99.90;;;;;;5071568;28;20797;-47
2022/10/31 00:36:16;;;;;;;3.70;1.80;;;12.00;99.90;;;;;;5072695;28;20536;-49
2022/10/31 00:38:43;;;;;;;4.27;1.87;;;11.90;99.90;;;;;;5072151;28;20449;-47
2022/10/31 00:41:10;;;;;;;3.63;1.70;;;11.70;99.90;;;;;;5072061;28;20893;-48
2022/10/31 00:43:37;;;;;;;3.23;2.00;;;11.70;99.90;;;;;;5071618;28;20473;-48
2022/10/31 00:46:06;;;;;;;6.27;2.23;;;12.00;99.90;;;;;;5072422;28;20443;-48
2022/10/31 00:48:32;;;;;;;9.43;2.10;;;12.00;99.90;;;;;;5072073;28;20449;-50
2022/10/31 00:51:00;;;;;;;3.97;1.80;;;12.10;99.90;;;;;;5072009;28;20444;-48
2022/10/31 00:53:26;;;;;;;4.27;2.00;;;12.20;99.90;;;;;;5071444;28;20560;-48
2022/10/31 00:55:53;;;;;;;6.10;1.77;;;12.00;99.90;;;;;;5071882;28;20583;-49
2022/10/31 00:58:20;;;;;;;4.80;2.20;;;12.00;99.90;;;;;;5071646;28;20535;-48
2022/10/31 01:00:54;;;;;;;6.37;2.10;;;12.00;99.90;;;;;;5072134;28;20524;-47
2022/10/31 01:03:23;;;;;;;3.10;2.00;;;12.10;99.90;;;;;;5071770;28;20467;-47
2022/10/31 01:06:00;;;;;;;5.03;2.13;;;12.00;99.90;;;;;;5071682;28;21019;-50
2022/10/31 01:08:27;;;;;;;4.87;1.90;;;11.70;99.90;;;;;;5071270;28;21026;-48
2022/10/31 01:11:07;;;;;;;3.20;1.87;;;11.90;99.90;;;;;;5071627;28;20881;-48
2022/10/31 01:13:35;;;;;;;5.50;1.83;;;12.00;99.90;;;;;;5071657;28;20809;-48
2022/10/31 01:16:03;;;;;;;4.80;1.93;;;12.00;99.90;;;;;;5071437;28;20566;-47
2022/10/31 01:18:31;;;;;;;4.00;1.97;;;11.50;99.90;;;;;;5071517;28;20539;-48
2022/10/31 01:21:03;;;;;;;3.70;2.23;;;11.30;99.90;;;;;;5071325;28;20695;-47
2022/10/31 01:23:31;;;;;;;3.43;1.73;;;11.60;99.90;;;;;;5071552;28;20469;-48
2022/10/31 01:26:06;;;;;;;5.77;1.43;;;11.60;99.90;;;;;;5071623;28;20529;-48
2022/10/31 01:28:34;;;;;;;4.20;1.70;;;11.50;99.90;;;;;;5071530;28;20454;-48
2022/10/31 01:31:02;;;;;;;5.57;1.97;;;11.60;99.90;;;;;;5071320;28;20898;-50
2022/10/31 01:33:30;;;;;;;6.97;2.23;;;11.80;99.90;;;;;;5070511;28;20973;-48
2022/10/31 01:35:57;;;;;;;4.47;1.77;;;11.90;99.90;;;;;;5071708;28;20563;-48
2022/10/31 01:38:24;;;;;;;3.00;1.90;;;11.90;99.90;;;;;;5071244;28;20538;-48
2022/10/31 01:40:51;;;;;;;6.17;1.87;;;11.90;99.90;;;;;;5071418;28;20536;-47
2022/10/31 01:43:19;;;;;;;5.00;1.70;;;11.90;99.90;;;;;;5070865;28;20477;-49
2022/10/31 01:45:51;;;;;;;7.23;2.37;;;11.60;99.90;;;;;;5071214;28;20438;-48
2022/10/31 01:48:21;;;;;;;3.83;1.67;;;11.70;99.90;;;;;;5071347;28;21014;-47
2022/10/31 01:50:52;;;;;;;4.37;1.70;;;11.50;99.90;;;;;;5071317;28;20444;-48
2022/10/31 01:53:20;;;;;;;6.10;1.93;;;11.40;99.90;;;;;;5072171;28;20476;-48
2022/10/31 01:55:47;;;;;;;4.43;2.10;;;11.60;99.90;;;;;;5071239;28;20479;-48
2022/10/31 01:58:17;;;;;;;5.30;2.10;;;11.70;99.90;;;;;;5071089;28;20441;-48
2022/10/31 02:00:47;;;;;;;3.03;1.97;;;11.60;99.90;;;;;;5071166;28;20927;-48
2022/10/31 02:03:14;;;;;;;3.20;1.40;;;11.40;99.90;;;;;;5070958;28;20463;-48
2022/10/31 02:05:43;;;;;;;3.83;1.77;;;11.60;99.90;;;;;;5071296;28;20534;-47
2022/10/31 02:08:16;;;;;;;4.33;2.60;;;11.50;99.90;;;;;;5070990;28;20534;-50
2022/10/31 02:10:44;;;;;;;4.03;1.73;;;11.40;99.90;;;;;;5070892;28;20453;-48
2022/10/31 02:13:13;;;;;;;3.07;1.87;;;10.90;99.90;;;;;;5070780;28;20473;-48
2022/10/31 02:15:42;;;;;;;5.40;1.63;;;11.00;99.90;;;;;;5071184;28;20482;-50
2022/10/31 02:18:10;;;;;;;4.47;2.07;;;10.80;99.90;;;;;;5071045;28;20929;-47
2022/10/31 02:20:43;;;;;;;4.73;2.27;;;10.90;99.90;;;;;;5071432;28;20536;-49
2022/10/31 02:23:34;;;;;;;5.13;3.57;;;10.80;99.90;;;;;;5074317;28;20465;-48
2022/10/31 02:26:41;;;;;;;3.20;1.37;;;11.20;99.90;;;;;;5074882;28;20869;-49
2022/10/31 02:29:31;;;;;;;5.57;2.23;;;11.30;99.90;;;;;;5059006;28;20537;-48
2022/10/31 02:32:04;;;;;;;5.80;1.80;;;11.30;99.90;;;;;;5074561;28;20449;-48
2022/10/31 02:34:37;;;;;;;3.27;1.53;;;11.30;99.90;;;;;;5074125;28;20467;-50
2022/10/31 02:37:12;;;;;;;5.30;2.17;;;11.40;99.90;;;;;;5074693;28;20533;-49
2022/10/31 02:39:46;;;;;;;2.73;2.10;;;11.20;99.90;;;;;;5074422;28;20437;-48
2022/10/31 02:42:18;;;;;;;3.70;1.80;;;10.90;99.90;;;;;;5074707;28;20532;-48
2022/10/31 02:44:52;;;;;;;3.67;1.90;;;11.00;99.90;;;;;;5074146;28;20452;-48
2022/10/31 02:47:26;;;;;;;3.77;1.70;;;11.10;99.90;;;;;;5074563;28;20933;-48
2022/10/31 02:49:58;;;;;;;3.23;2.17;;;10.40;99.90;;;;;;5074134;28;20470;-47
2022/10/31 02:52:27;;;;;;;4.87;1.80;;;10.30;99.90;;;;;;5074296;28;20471;-48
2022/10/31 02:54:54;;;;;;;4.60;2.50;;;10.50;99.90;;;;;;5074210;28;20793;-47
2022/10/31 02:57:25;;;;;;;4.83;1.73;;;10.80;99.90;;;;;;5074837;28;20533;-47
2022/10/31 02:59:57;;;;;;;3.07;1.83;;;11.10;99.90;;;;;;5073938;28;20825;-48
2022/10/31 03:02:43;;;;;;;6.03;2.13;;;11.20;99.90;;;;;;5073680;28;20531;-48
2022/10/31 03:05:24;;;;;;;8.10;4.50;;;10.90;99.90;;;;;;5073800;28;20437;-48
2022/10/31 03:08:00;;;;;;;3.10;1.90;;;11.00;99.90;;;;;;5073713;28;21005;-49
2022/10/31 03:10:36;;;;;;;7.30;1.70;;;10.90;99.90;;;;;;5073995;28;20440;-47
2022/10/31 03:13:10;;;;;;;4.07;2.47;;;11.00;99.90;;;;;;5073830;28;20823;-48
2022/10/31 03:15:40;;;;;;;6.60;2.40;;;11.10;99.90;;;;;;5073805;28;20572;-48
2022/10/31 03:18:11;;;;;;;3.73;2.00;;;11.10;99.90;;;;;;5073543;28;20437;-48
2022/10/31 03:20:40;;;;;;;3.83;2.07;;;10.80;99.90;;;;;;5073166;28;21005;-48
2022/10/31 03:23:11;;;;;;;4.87;1.37;;;10.90;99.90;;;;;;5073567;28;20545;-48
2022/10/31 03:25:40;;;;;;;7.07;2.30;;;11.10;99.90;;;;;;5073600;28;20529;-48
2022/10/31 03:28:08;;;;;;;5.83;2.00;;;11.20;99.90;;;;;;5073702;28;21002;-48
2022/10/31 03:30:37;;;;;;;5.43;2.30;;;11.20;99.90;;;;;;5073418;28;20445;-47
2022/10/31 03:33:08;;;;;;;6.13;3.17;;;11.00;99.90;;;;;;5072610;28;21090;-47
2022/10/31 03:35:39;;;;;;;7.70;2.70;;;10.60;99.90;;;;;;5073325;28;21281;-48
2022/10/31 03:38:07;;;;;;;3.90;2.30;;;10.40;99.90;;;;;;5073760;28;20442;-47
2022/10/31 03:40:37;;;;;;;4.23;1.90;;;10.50;99.90;;;;;;5073159;28;21013;-47
2022/10/31 03:43:09;;;;;;;8.57;2.30;;;10.30;99.90;;;;;;5073305;28;20547;-49
2022/10/31 03:45:41;;;;;;;4.70;2.20;;;10.60;99.90;;;;;;5073109;28;20532;-49
2022/10/31 03:48:09;;;;;;;9.63;1.87;;;10.70;99.90;;;;;;5073449;28;20531;-48
2022/10/31 03:50:46;;;;;;;6.37;2.23;;;10.90;99.90;;;;;;5072929;28;20905;-47
2022/10/31 03:53:18;;;;;;;5.70;2.03;;;11.00;99.90;;;;;;5072839;28;20476;-47
2022/10/31 03:55:50;;;;;;;4.00;1.67;;;11.00;99.90;;;;;;5072990;28;20480;-48
2022/10/31 03:58:22;;;;;;;4.93;1.73;;;10.80;99.90;;;;;;5072928;28;20528;-48
2022/10/31 04:00:52;;;;;;;3.10;1.67;;;11.00;99.90;;;;;;5072831;28;20567;-48
2022/10/31 04:03:24;;;;;;;4.40;2.30;;;10.90;99.90;;;;;;5072911;28;20539;-48
2022/10/31 04:05:55;;;;;;;4.33;2.13;;;10.50;99.90;;;;;;5072881;28;20519;-48
2022/10/31 04:08:27;;;;;;;3.67;1.53;;;10.70;99.90;;;;;;5073052;28;20887;-48
2022/10/31 04:10:56;;;;;;;5.73;2.17;;;10.90;99.90;;;;;;5072936;28;20445;-47
2022/10/31 04:13:27;;;;;;;5.50;2.00;;;11.00;99.90;;;;;;5072223;28;20497;-51
2022/10/31 04:15:56;;;;;;;3.80;2.30;;;10.80;99.90;;;;;;5072629;28;20555;-47
2022/10/31 04:18:24;;;;;;;6.73;2.60;;;10.90;99.90;;;;;;5072718;28;20445;-47
2022/10/31 04:21:01;;;;;;;3.77;1.97;;;10.90;99.90;;;;;;5072535;28;20473;-49
2022/10/31 04:23:28;;;;;;;4.70;1.90;;;10.90;99.90;;;;;;5072152;28;20459;-48
2022/10/31 04:25:55;;;;;;;7.27;2.30;;;11.00;99.90;;;;;;5072630;28;20481;-48
2022/10/31 04:28:22;;;;;;;4.73;2.33;;;11.10;99.90;;;;;;5072477;28;20925;-48
2022/10/31 04:30:49;;;;;;;5.40;3.03;;;10.90;99.90;;;;;;5072523;28;20437;-48
2022/10/31 04:33:17;;;;;;;5.13;1.90;;;10.60;99.90;;;;;;5071830;28;20462;-48
2022/10/31 04:35:44;;;;;;;2.53;1.63;;;10.50;99.90;;;;;;5072319;28;20488;-48
2022/10/31 04:38:12;;;;;;;4.23;2.33;;;10.20;99.90;;;;;;5072118;28;20448;-49
2022/10/31 04:40:39;;;;;;;4.07;1.97;;;10.10;99.90;;;;;;5072878;28;20539;-50
2022/10/31 04:43:06;;;;;;;5.30;2.40;;;10.20;99.90;;;;;;5071289;28;21006;-48
2022/10/31 04:45:33;;;;;;;9.53;2.40;;;10.40;99.90;;;;;;5071667;28;20524;-47
2022/10/31 04:48:00;;;;;;;3.50;1.80;;;10.30;99.90;;;;;;5072133;28;20536;-48
2022/10/31 04:50:27;;;;;;;4.60;2.13;;;10.30;99.90;;;;;;5071987;28;20536;-48
2022/10/31 04:52:54;;;;;;;3.13;1.67;;;10.20;99.90;;;;;;5071466;28;20479;-48
2022/10/31 04:55:22;;;;;;;5.30;2.80;;;10.20;99.90;;;;;;5071562;28;20485;-48
2022/10/31 04:57:50;;;;;;;3.97;2.03;;;10.50;99.90;;;;;;5072238;28;20445;-47
2022/10/31 05:00:19;;;;;;;4.37;2.50;;;10.70;99.90;;;;;;5071579;28;20811;-48
2022/10/31 05:02:47;;;;;;;8.10;4.53;;;10.60;99.90;;;;;;5071679;28;20543;-51
2022/10/31 05:05:15;;;;;;;3.70;2.67;;;10.70;99.90;;;;;;5071928;28;20441;-47
2022/10/31 05:07:42;;;;;;;3.23;2.30;;;10.70;99.90;;;;;;5071766;28;20443;-48
2022/10/31 05:10:10;;;;;;;5.93;2.03;;;10.50;99.90;;;;;;5071852;28;20440;-49
2022/10/31 05:12:39;;;;;;;4.20;2.00;;;10.60;99.90;;;;;;5071404;28;20447;-48
2022/10/31 05:15:07;;;;;;;3.80;2.23;;;10.70;99.90;;;;;;5071110;28;20536;-48
2022/10/31 05:17:33;;;;;;;4.13;2.10;;;10.80;99.90;;;;;;5071824;28;20440;-49
2022/10/31 05:20:00;;;;;;;5.30;1.97;;;10.90;99.90;;;;;;5071612;28;20445;-48
2022/10/31 05:22:27;;;;;;;3.83;1.83;;;10.80;99.90;;;;;;5071420;28;20523;-47
2022/10/31 05:24:54;;;;;;;6.87;2.07;;;10.40;99.90;;;;;;5071381;28;20453;-48
2022/10/31 05:27:21;;;;;;;3.80;2.40;;;10.40;99.90;;;;;;5071339;28;21037;-48
2022/10/31 05:29:49;;;;;;;4.23;2.00;;;10.30;99.90;;;;;;5071658;28;20440;-47
2022/10/31 05:32:16;;;;;;;2.87;1.73;;;10.00;99.90;;;;;;5071642;28;20544;-50
2022/10/31 05:34:43;;;;;;;4.87;1.77;;;10.30;99.90;;;;;;5070843;28;20461;-48
2022/10/31 05:37:10;;;;;;;5.27;1.70;;;10.50;99.90;;;;;;5071341;28;20924;-48
2022/10/31 05:39:37;;;;;;;4.87;2.00;;;10.50;99.90;;;;;;5071229;28;20883;-50
2022/10/31 05:42:03;;;;;;;5.97;2.00;;;10.50;99.90;;;;;;5071256;28;20540;-48
2022/10/31 05:44:30;;;;;;;5.80;2.37;;;10.40;99.90;;;;;;5071016;28;20821;-47
2022/10/31 05:46:59;;;;;;;4.43;2.63;;;10.30;99.90;;;;;;5071193;28;21016;-48
2022/10/31 05:49:25;;;;;;;5.20;2.33;;;10.10;99.90;;;;;;5071169;28;20890;-48
2022/10/31 05:51:52;;;;;;;5.80;2.67;;;10.10;99.90;;;;;;5071155;28;20535;-48
2022/10/31 05:54:19;;;;;;;3.70;2.50;;;10.20;99.90;;;;;;5070910;28;21012;-47
2022/10/31 05:56:46;;;;;;;5.87;2.60;;;10.20;99.90;;;;;;5075613;28;20483;-49
2022/10/31 05:59:13;;;;;;;3.83;2.47;;;10.30;99.90;;;;;;5075204;28;20955;-47
2022/10/31 06:01:39;;;;;;;5.50;2.60;;;10.10;99.90;;;;;;5075103;28;20606;-46
2022/10/31 06:04:08;;;;;;;4.83;2.73;;;10.20;99.90;;;;;;5074624;28;20464;-49
2022/10/31 06:06:35;;;;;;;6.87;2.20;;;10.10;99.90;;;;;;5075129;28;20973;-47
2022/10/31 06:09:01;;;;;;;3.00;1.93;;;10.40;99.90;;;;;;5075456;28;20444;-47
2022/10/31 06:11:28;;;;;;;5.73;2.97;;;10.50;99.90;;;;;;5075099;28;20929;-47
2022/10/31 06:13:55;;;;;;;5.53;2.53;;;10.50;99.90;;;;;;5075217;28;20543;-48
2022/10/31 06:16:22;;;;;;;5.60;3.77;;;10.10;99.90;;;;;;5074989;28;20576;-48
2022/10/31 06:18:49;;;;;;;5.40;3.00;;;10.20;99.90;;;;;;5074999;28;20445;-47
2022/10/31 06:21:17;;;;;;;3.80;2.20;;;10.30;99.90;;;;;;5075291;28;20472;-48
2022/10/31 06:23:44;;;;;;;4.20;2.60;;;9.90;99.90;;;;;;5074592;28;20469;-46
2022/10/31 06:26:11;;;;;;;9.67;4.70;;;9.80;99.90;;;;;;5075006;28;20468;-47
2022/10/31 06:28:37;;;;;;;7.07;3.50;;;10.20;99.90;;;;;;5074698;28;20447;-47
2022/10/31 06:31:04;;;;;;;3.70;2.83;;;10.20;99.90;;;;;;5074607;28;21032;-47
2022/10/31 06:33:31;;;;;;;5.80;2.80;;;10.00;99.90;;;;;;5073746;28;20468;-47
2022/10/31 06:35:58;;;;;;;4.50;2.00;;;10.30;99.90;;;;;;5074469;28;20482;-50
2022/10/31 06:38:28;;;;;;;3.60;2.20;;;10.30;99.90;;;;;;5074926;28;20447;-48
2022/10/31 06:40:55;;;;;;;4.57;3.20;;;10.50;99.90;;;;;;5074151;28;20456;-47
2022/10/31 06:43:22;;;;;;;11.20;5.63;;;10.60;99.90;;;;;;5074379;28;20504;-47
2022/10/31 06:45:49;;;;;;;4.53;3.50;;;10.70;99.90;;;;;;5074146;28;20445;-47
2022/10/31 06:48:16;;;;;;;3.70;3.03;;;10.70;99.90;;;;;;5074263;28;21029;-47
2022/10/31 06:50:43;;;;;;;6.50;3.40;;;10.60;99.90;;;;;;5074176;28;20487;-47
2022/10/31 06:53:10;;;;;;;5.03;3.10;;;10.60;99.90;;;;;;5073786;28;20559;-47
2022/10/31 06:55:38;;;;;;;14.33;4.73;;;10.70;99.90;;;;;;5074227;28;20524;-47
2022/10/31 06:58:05;;;;;;;11.43;6.83;;;10.70;99.90;;;;;;5074722;28;20446;-47
2022/10/31 07:00:32;;;;;;;14.17;6.80;;;10.50;99.90;;;;;;5074347;28;20441;-51
2022/10/31 07:03:01;;;;;;;6.90;3.77;;;10.60;99.90;;;;;;5073662;28;20579;-49
2022/10/31 07:05:29;;;;;;;22.77;8.37;;;10.50;99.90;;;;;;5073808;28;20938;-47
2022/10/31 07:07:57;;;;;;;20.37;5.97;;;10.70;99.90;;;;;;5073593;28;20536;-47
2022/10/31 07:10:25;;;;;;;15.53;5.40;;;10.70;99.90;;;;;;5073617;28;20527;-47
2022/10/31 07:12:57;;;;;;;18.07;5.33;;;10.40;99.90;;;;;;5073437;28;21240;-45
2022/10/31 07:15:24;;;;;;;8.23;7.43;;;10.10;99.90;;;;;;5074225;28;20481;-47
2022/10/31 07:17:51;;;;;;;11.07;5.40;;;9.70;99.90;;;;;;5073640;28;20555;-50
2022/10/31 07:20:18;;;;;;;5.00;3.80;;;9.90;99.90;;;;;;5073865;28;20479;-47
2022/10/31 07:22:45;;;;;;;7.13;4.07;;;9.80;99.90;;;;;;5073354;28;20547;-48
2022/10/31 07:25:12;;;;;;;4.27;2.70;;;10.00;99.90;;;;;;5073361;28;20447;-47
2022/10/31 07:27:40;;;;;;;5.83;3.17;;;10.20;99.90;;;;;;5073858;28;20836;-47
2022/10/31 07:30:10;;;;;;;4.63;3.83;;;10.50;99.90;;;;;;5073618;28;20882;-46
2022/10/31 07:32:41;;;;;;;5.53;3.20;;;10.50;99.90;;;;;;5073347;28;20526;-47
2022/10/31 07:35:08;;;;;;;9.80;4.17;;;10.50;99.90;;;;;;5072976;28;20444;-47
2022/10/31 07:37:35;;;;;;;6.77;3.80;;;10.40;99.90;;;;;;5073349;28;21015;-46
2022/10/31 07:40:02;;;;;;;6.10;3.77;;;10.50;99.90;;;;;;5073471;28;20445;-49
2022/10/31 07:42:29;;;;;;;4.63;3.70;;;10.70;99.90;;;;;;5073135;28;20444;-47
2022/10/31 07:44:56;;;;;;;6.93;4.10;;;10.60;99.90;;;;;;5072981;28;20830;-47
2022/10/31 07:47:24;;;;;;;43.27;37.73;;;10.30;99.90;;;;;;5073312;28;20808;-48
2022/10/31 07:49:51;;;;;;;14.47;13.07;;;10.50;99.90;;;;;;5072782;28;20896;-47
2022/10/31 07:52:18;;;;;;;9.40;7.13;;;10.50;99.90;;;;;;5073542;28;20452;-47
2022/10/31 07:54:45;;;;;;;8.97;6.10;;;10.40;99.90;;;;;;5074133;28;20556;-48
2022/10/31 07:57:12;;;;;;;9.37;8.43;;;10.40;99.90;;;;;;5072905;28;20579;-48
2022/10/31 07:59:38;;;;;;;9.60;7.50;;;9.80;99.90;;;;;;5073034;28;20532;-48
2022/10/31 08:02:05;;;;;;;13.00;6.67;;;9.70;99.90;;;;;;5072717;28;20950;-48
2022/10/31 08:04:34;;;;;;;7.13;4.50;;;9.90;99.90;;;;;;5072209;28;20889;-48
2022/10/31 08:07:00;;;;;;;7.73;6.50;;;10.20;99.90;;;;;;5072663;28;20516;-48
2022/10/31 08:09:27;;;;;;;7.60;6.00;;;10.30;99.90;;;;;;5072945;28;20532;-49
2022/10/31 08:11:54;;;;;;;9.57;7.67;;;10.30;99.90;;;;;;5073012;28;20456;-49
2022/10/31 08:14:22;;;;;;;9.63;7.57;;;10.40;99.90;;;;;;5072446;28;20897;-48
2022/10/31 08:16:49;;;;;;;6.23;5.60;;;10.40;99.90;;;;;;5072385;28;20473;-49
2022/10/31 08:19:15;;;;;;;7.10;6.10;;;10.50;99.90;;;;;;5071346;28;20814;-48
2022/10/31 08:21:44;;;;;;;10.53;8.33;;;10.60;99.90;;;;;;5072766;28;20532;-48
2022/10/31 08:24:11;;;;;;;12.43;7.10;;;10.50;99.90;;;;;;5072415;28;20631;-48
2022/10/31 08:26:38;;;;;;;11.50;8.60;;;10.60;99.90;;;;;;5072157;28;20960;-48
2022/10/31 08:29:05;;;;;;;9.67;6.57;;;10.70;99.90;;;;;;5069224;28;20736;-48
2022/10/31 08:31:31;;;;;;;5.50;3.90;;;10.70;99.90;;;;;;5072151;28;20448;-48
2022/10/31 08:33:58;;;;;;;5.90;3.57;;;10.50;99.90;;;;;;5071356;28;20555;-48
2022/10/31 08:36:25;;;;;;;9.53;4.17;;;10.70;99.90;;;;;;5072216;28;20850;-48
2022/10/31 08:38:54;;;;;;;11.17;5.70;;;10.80;99.90;;;;;;5072359;28;20463;-48
2022/10/31 08:41:21;;;;;;;12.37;8.20;;;10.90;99.90;;;;;;5071981;28;20811;-49
2022/10/31 08:43:48;;;;;;;7.40;5.30;;;10.90;99.90;;;;;;5071353;28;20532;-48
2022/10/31 08:46:14;;;;;;;10.90;5.30;;;10.40;99.90;;;;;;5072446;28;20797;-49
2022/10/31 08:48:41;;;;;;;7.73;4.67;;;10.60;99.90;;;;;;5072170;28;20531;-49
2022/10/31 08:51:10;;;;;;;5.67;3.80;;;10.80;99.90;;;;;;5071749;28;20864;-48
2022/10/31 08:53:37;;;;;;;4.93;3.60;;;11.00;99.90;;;;;;5072480;28;20485;-49
2022/10/31 08:56:07;;;;;;;6.53;4.77;;;11.00;99.90;;;;;;5073000;28;20814;-48
2022/10/31 08:58:33;;;;;;;7.20;4.10;;;11.10;99.90;;;;;;5072246;28;20474;-49
2022/10/31 09:01:01;;;;;;;5.97;3.60;;;11.20;99.90;;;;;;5071376;28;20524;-48
2022/10/31 09:03:30;;;;;;;10.50;4.57;;;11.40;99.90;;;;;;5071738;28;20461;-49
2022/10/31 09:05:58;;;;;;;5.13;3.40;;;11.10;99.90;;;;;;5071687;28;20804;-48
2022/10/31 09:08:25;;;;;;;4.63;2.80;;;11.30;99.90;;;;;;5071716;28;20543;-48
2022/10/31 09:10:53;;;;;;;8.63;4.20;;;11.40;99.90;;;;;;5071733;28;20448;-50
2022/10/31 09:13:22;;;;;;;5.83;2.73;;;11.50;99.90;;;;;;5071130;28;21041;-48
2022/10/31 09:15:50;;;;;;;8.93;3.80;;;11.50;99.90;;;;;;5071338;28;20951;-48
2022/10/31 09:18:19;;;;;;;8.03;4.90;;;11.70;99.90;;;;;;5071028;28;20482;-48
2022/10/31 09:20:48;;;;;;;9.43;4.80;;;11.90;99.90;;;;;;5071607;28;20447;-48
2022/10/31 09:23:16;;;;;;;4.57;2.37;;;12.10;99.90;;;;;;5070926;28;20838;-50
2022/10/31 09:25:44;;;;;;;5.30;2.73;;;12.30;99.90;;;;;;5071642;28;20532;-49
2022/10/31 09:28:12;;;;;;;4.20;2.47;;;12.40;99.90;;;;;;5070718;28;20559;-49
2022/10/31 09:30:40;;;;;;;7.00;3.70;;;12.60;99.90;;;;;;5069761;28;20453;-51
2022/10/31 09:33:10;;;;;;;11.20;4.37;;;12.60;99.90;;;;;;5070221;28;20467;-50
2022/10/31 09:35:37;;;;;;;6.13;3.70;;;12.80;99.90;;;;;;5070750;28;20447;-49
2022/10/31 09:38:06;;;;;;;50.37;8.47;;;12.90;99.90;;;;;;5070723;28;20520;-49
2022/10/31 09:40:36;;;;;;;24.27;6.13;;;12.90;99.90;;;;;;5070946;28;20950;-49
2022/10/31 09:43:15;;;;;;;7.47;5.37;;;13.00;99.90;;;;;;5070693;28;20839;-50
2022/10/31 09:45:53;;;;;;;5.23;2.40;;;13.00;99.90;;;;;;5071421;28;20446;-50
2022/10/31 09:48:55;;;;;;;4.50;2.60;;;13.10;99.90;;;;;;5071180;28;20533;-48
2022/10/31 09:51:26;;;;;;;5.50;2.23;;;13.10;99.90;;;;;;5071136;28;20541;-49
2022/10/31 09:54:01;;;;;;;3.60;2.20;;;13.10;99.90;;;;;;5070561;28;20553;-49
2022/10/31 09:56:29;;;;;;;6.40;2.37;;;13.10;99.90;;;;;;5071191;28;20450;-48
2022/10/31 09:59:00;;;;;;;5.40;2.13;;;13.10;99.90;;;;;;5071026;28;20476;-48
2022/10/31 10:01:40;;;;;;;4.80;2.00;;;13.20;99.90;;;;;;5070708;28;20951;-49
2022/10/31 10:04:29;;;;;;;6.83;2.00;;;13.20;99.90;;;;;;5070825;28;20454;-49
2022/10/31 10:06:57;;;;;;;8.43;2.40;;;13.20;99.90;;;;;;5070874;28;20959;-48
2022/10/31 10:09:27;;;;;;;4.33;2.17;;;13.20;99.90;;;;;;5071235;28;20527;-49
2022/10/31 10:12:06;;;;;;;6.33;2.63;;;13.30;99.90;;;;;;5070991;28;20451;-49
2022/10/31 10:14:46;;;;;;;8.37;2.97;;;13.30;99.90;;;;;;5070794;28;20555;-48
2022/10/31 10:17:24;;;;;;;37.20;7.27;;;13.30;99.90;;;;;;5071119;28;20475;-48
2022/10/31 10:20:10;;;;;;;32.93;6.10;;;13.40;99.90;;;;;;5071107;28;20527;-47
2022/10/31 10:22:43;;;;;;;6.73;3.20;;;13.40;99.90;;;;;;5070796;28;20436;-48
2022/10/31 10:25:17;;;;;;;9.93;3.00;;;13.40;99.90;;;;;;5070642;28;20817;-48
2022/10/31 10:28:02;;;;;;;5.40;2.87;;;13.50;99.90;;;;;;5071035;28;20440;-48
2022/10/31 10:30:36;;;;;;;5.00;2.70;;;13.50;99.90;;;;;;5071118;28;20813;-47
2022/10/31 10:33:11;;;;;;;12.10;3.90;;;13.50;99.90;;;;;;5070323;28;20456;-51
2022/10/31 10:35:42;;;;;;;4.80;2.33;;;13.60;99.90;;;;;;5071068;28;20529;-48
2022/10/31 10:38:16;;;;;;;5.90;2.97;;;13.70;99.90;;;;;;5067308;28;20479;-48
2022/10/31 10:40:44;;;;;;;15.23;3.70;;;13.80;99.90;;;;;;5069809;28;20981;-48
2022/10/31 10:43:21;;;;;;;7.40;3.50;;;13.80;99.90;;;;;;5072757;28;20464;-48
2022/10/31 10:48:44;;;;;;;5.27;3.77;;;13.80;99.90;;;;;;5074430;28;20491;-47
2022/10/31 10:51:23;;;;;;;4.97;2.93;;;13.90;99.90;;;;;;5074209;28;20443;-47
2022/10/31 10:54:03;;;;;;;10.80;3.27;;;13.90;99.90;;;;;;5073768;28;20468;-47
2022/10/31 10:56:49;;;;;;;6.33;3.40;;;13.90;99.90;;;;;;5074156;28;20452;-47
2022/10/31 10:59:19;;;;;;;5.67;3.33;;;13.90;99.90;;;;;;5073879;28;20559;-47
2022/10/31 11:01:49;;;;;;;9.90;3.70;;;14.00;99.90;;;;;;5073674;28;20440;-48
2022/10/31 11:04:27;;;;;;;12.03;3.50;;;14.00;99.90;;;;;;5071582;28;20464;-52
2022/10/31 11:07:02;;;;;;;5.50;3.50;;;14.10;99.90;;;;;;5072739;28;20519;-49
2022/10/31 11:09:29;;;;;;;8.17;4.00;;;14.10;99.90;;;;;;5073072;28;20450;-49
2022/10/31 11:11:58;;;;;;;6.30;2.83;;;14.30;99.90;;;;;;5073790;28;20441;-51
2022/10/31 11:14:27;;;;;;;5.50;3.10;;;14.30;99.90;;;;;;5073093;28;20503;-49
2022/10/31 11:17:08;;;;;;;6.33;3.80;;;14.30;99.90;;;;;;5072633;28;20531;-49
2022/10/31 11:19:37;;;;;;;9.80;3.37;;;14.40;99.90;;;;;;5072482;28;20444;-49
2022/10/31 11:22:08;;;;;;;10.27;5.47;;;14.50;99.90;;;;;;5072211;28;20989;-47
2022/10/31 11:24:40;;;;;;;9.63;5.30;;;14.40;99.90;;;;;;5071950;28;20484;-47
2022/10/31 11:27:15;;;;;;;8.33;5.10;;;14.40;99.90;;;;;;5072344;28;20444;-47
2022/10/31 11:29:42;;;;;;;8.90;4.93;;;14.50;99.90;;;;;;5071799;28;20537;-48
2022/10/31 11:32:19;;;;;;;10.27;6.70;;;14.60;99.90;;;;;;5073007;28;20448;-47
2022/10/31 11:34:50;;;;;;;6.57;4.87;;;14.70;99.90;;;;;;5073164;28;20706;-48
2022/10/31 11:37:19;;;;;;;6.90;3.80;;;14.80;99.90;;;;;;5073408;28;20515;-47
2022/10/31 11:39:52;;;;;;;5.40;3.40;;;14.80;99.90;;;;;;5073777;28;20531;-48
2022/10/31 11:42:22;;;;;;;8.90;3.83;;;14.80;99.90;;;;;;5073535;28;20476;-47
2022/10/31 11:44:50;;;;;;;4.60;2.50;;;14.70;99.90;;;;;;5073036;28;20527;-48
2022/10/31 11:47:21;;;;;;;6.87;3.33;;;14.80;99.90;;;;;;5073790;28;20527;-47
2022/10/31 11:49:50;;;;;;;8.30;2.97;;;14.80;99.90;;;;;;5073661;28;20841;-48
2022/10/31 11:52:20;;;;;;;7.00;3.70;;;14.90;99.90;;;;;;5072836;28;20443;-48
2022/10/31 11:54:50;;;;;;;7.50;4.23;;;14.90;99.90;;;;;;5073015;28;20457;-48
2022/10/31 11:57:26;;;;;;;6.97;5.00;;;15.00;99.90;;;;;;5072934;28;20540;-49
2022/10/31 11:59:54;;;;;;;6.77;4.33;;;14.90;99.90;;;;;;5072778;28;20445;-48
2022/10/31 12:02:21;;;;;;;6.13;5.20;;;14.80;99.90;;;;;;5072418;28;20535;-50
2022/10/31 12:04:56;;;;;;;13.27;5.67;;;15.10;99.90;;;;;;5072776;28;20436;-48
2022/10/31 12:07:24;;;;;;;5.37;3.60;;;15.40;99.90;;;;;;5073048;28;20444;-48
2022/10/31 12:09:51;;;;;;;8.93;3.23;;;15.50;99.90;;;;;;5072816;28;20440;-48
2022/10/31 12:12:43;;;;;;;9.07;4.13;;;15.50;99.90;;;;;;5072800;28;20900;-48
2022/10/31 12:15:30;;;;;;;5.93;2.60;;;15.40;99.90;;;;;;5073111;28;20502;-47
2022/10/31 12:18:26;;;;;;;8.40;2.57;;;15.50;99.90;;;;;;5073013;28;20571;-48
2022/10/31 12:21:10;;;;;;;5.63;3.23;;;15.20;99.90;;;;;;5068943;28;20543;-49
2022/10/31 12:23:50;;;;;;;4.93;3.30;;;15.30;99.90;;;;;;5072126;28;20539;-47
2022/10/31 12:26:22;;;;;;;4.67;3.90;;;15.50;99.90;;;;;;5072584;28;20437;-49
2022/10/31 12:29:04;;;;;;;4.80;2.67;;;15.40;99.90;;;;;;5072491;28;20464;-48
2022/10/31 12:31:43;;;;;;;5.33;3.10;;;15.40;99.90;;;;;;5072281;28;20932;-47
2022/10/31 12:34:31;;;;;;;7.67;3.13;;;15.40;99.90;;;;;;5071952;28;20543;-47
2022/10/31 12:37:06;;;;;;;129.93;18.47;;;15.40;99.90;;;;;;5072319;28;20444;-48
2022/10/31 12:39:44;;;;;;;54.07;11.73;;;15.40;99.90;;;;;;5072218;28;20566;-48
2022/10/31 12:42:20;;;;;;;7.03;2.97;;;15.50;99.90;;;;;;5071523;28;20490;-47
2022/10/31 12:45:02;;;;;;;6.23;2.57;;;15.70;99.90;;;;;;5072160;28;20446;-48
2022/10/31 12:47:43;;;;;;;4.00;2.70;;;15.70;99.90;;;;;;5072131;28;20527;-49
2022/10/31 12:50:21;;;;;;;6.70;2.60;;;15.90;99.90;;;;;;5070347;28;20440;-48
2022/10/31 12:53:00;;;;;;;5.93;2.97;;;15.80;99.90;;;;;;5070398;28;20507;-50
2022/10/31 12:55:38;;;;;;;5.37;2.50;;;16.00;99.90;;;;;;5071808;28;20440;-48
2022/10/31 12:58:11;;;;;;;4.73;2.50;;;16.00;99.90;;;;;;5071605;28;20563;-49
2022/10/31 13:00:43;;;;;;;5.70;3.10;;;16.00;99.90;;;;;;5071811;28;20447;-48
2022/10/31 13:03:22;;;;;;;5.10;3.07;;;15.90;99.90;;;;;;5071181;28;20540;-48
2022/10/31 13:05:54;;;;;;;4.70;2.50;;;15.90;99.90;;;;;;5070630;28;20519;-48